Time;durP1;ratioP1;P1;durP2;ratioP2;P2;SDS_P1;SDS_P2;PMS_P1;PMS_P2;Temp;Humidity;BMP_temperature;BMP_pressure;BME280_temperature;BME280_humidity;BME280_pressure;Samples;Min_cycle;Max_cycle;Signal;HPM_P1;HPM_P2
2022/12/17 13:06:11;;;;;;;42.67;22.13;;;;;;;3.83;86.26;97091.13;4963775;28;20097;-41
2022/12/17 13:08:40;;;;;;;40.90;22.88;;;;;;;3.97;88.80;97086.81;4963605;28;20085;-41
2022/12/17 13:11:26;;;;;;;39.15;22.38;;;;;;;4.22;81.05;97080.97;4968093;28;20098;-46
2022/12/17 13:13:55;;;;;;;38.15;21.77;;;;;;;4.28;77.37;97078.03;4962335;28;20093;-45
2022/12/17 13:16:32;;;;;;;39.87;22.73;;;;;;;4.03;82.70;97089.06;4962978;28;20172;-41
2022/12/17 13:19:04;;;;;;;41.70;22.92;;;;;;;4.31;77.86;97084.84;4959293;28;20456;-46
2022/12/17 13:21:33;;;;;;;84.10;44.70;;;;;;;4.46;75.47;97086.53;4956379;28;20085;-41
2022/12/17 13:24:10;;;;;;;62.15;35.10;;;;;;;4.49;78.13;97088.97;4963608;28;20530;-45
2022/12/17 13:26:45;;;;;;;55.15;31.48;;;;;;;4.22;78.85;97091.41;4960874;28;20093;-44
2022/12/17 13:29:23;;;;;;;46.92;27.38;;;;;;;3.82;80.34;97095.53;4962223;28;20489;-43
2022/12/17 13:32:02;;;;;;;54.25;27.65;;;;;;;4.23;80.82;97095.75;4964589;28;20097;-40
2022/12/17 13:34:41;;;;;;;48.03;25.52;;;;;;;4.14;81.36;97108.47;4968979;28;20082;-45
2022/12/17 13:37:14;;;;;;;39.08;22.92;;;;;;;4.42;82.41;97107.69;4963533;28;20097;-44
2022/12/17 13:39:49;;;;;;;47.00;26.75;;;;;;;4.38;80.34;97104.44;4966565;28;20097;-43
2022/12/17 13:42:22;;;;;;;38.13;24.00;;;;;;;4.20;80.85;97113.34;4961499;28;20635;-40
2022/12/17 13:44:54;;;;;;;42.13;25.33;;;;;;;4.01;82.12;97124.81;4965296;28;20167;-46
2022/12/17 13:47:24;;;;;;;46.88;26.75;;;;;;;3.91;84.46;97126.28;4965114;28;20089;-41
2022/12/17 13:49:56;;;;;;;45.03;27.00;;;;;;;3.43;83.93;97130.69;4967024;28;20082;-45
2022/12/17 13:52:44;;;;;;;43.30;24.60;;;;;;;2.46;100.00;97136.75;4963764;28;20104;-43
2022/12/17 13:55:19;;;;;;;41.50;25.05;;;;;;;2.61;100.00;97143.75;4964456;28;20083;-42
2022/12/17 13:57:49;;;;;;;43.13;24.27;;;;;;;2.50;100.00;97144.31;4963950;28;20086;-40
2022/12/17 14:00:20;;;;;;;41.50;24.52;;;;;;;2.00;100.00;97154.66;4968042;28;20116;-41
2022/12/17 14:02:49;;;;;;;46.15;25.48;;;;;;;2.34;100.00;97161.59;4962365;28;20090;-44
2022/12/17 14:05:31;;;;;;;47.72;26.25;;;;;;;2.08;100.00;97163.75;4967775;28;20581;-40
2022/12/17 14:08:02;;;;;;;48.47;27.83;;;;;;;1.75;100.00;97163.63;4956212;28;20478;-46
2022/12/17 14:10:30;;;;;;;;;;;;;;;2.04;100.00;97162.22;4966131;28;20089;-41
2022/12/17 14:13:02;;;;;;;55.13;30.50;;;;;;;2.23;100.00;97171.72;4964368;28;20026;-45
2022/12/17 14:15:31;;;;;;;50.53;28.23;;;;;;;2.49;100.00;97178.25;4965003;28;20078;-43
2022/12/17 14:17:59;;;;;;;50.15;28.77;;;;;;;2.67;100.00;97166.03;4958846;28;20094;-43
2022/12/17 14:20:31;;;;;;;52.88;31.33;;;;;;;2.74;100.00;97170.84;4968475;28;20078;-47
2022/12/17 14:23:00;;;;;;;47.90;28.33;;;;;;;2.65;100.00;97175.69;4957904;28;20093;-42
2022/12/17 14:25:31;;;;;;;45.03;27.23;;;;;;;1.76;100.00;97183.53;4960982;28;20101;-45
2022/12/17 14:28:01;;;;;;;46.83;27.48;;;;;;;2.02;100.00;97177.06;4968149;28;20121;-42
2022/12/17 14:30:36;;;;;;;47.63;27.95;;;;;;;1.94;100.00;97181.78;4962918;28;20558;-50
2022/12/17 14:33:28;;;;;;;50.90;30.48;;;;;;;1.88;100.00;97172.50;4963164;28;20101;-45
2022/12/17 14:36:01;;;;;;;54.15;32.05;;;;;;;1.90;100.00;97178.50;4962250;28;20102;-42
2022/12/17 14:38:29;;;;;;;50.53;28.98;;;;;;;2.26;100.00;97174.16;4965209;28;20089;-41
2022/12/17 14:42:24;;;;;;;52.75;30.90;;;;;;;2.46;100.00;97186.19;4966323;28;20498;-41
2022/12/17 14:44:04;;;;;;;51.58;28.98;;;;;;;2.45;100.00;97190.56;4960330;28;20086;-45
2022/12/17 14:46:34;;;;;;;48.47;29.20;;;;;;;2.40;100.00;97200.34;4962769;28;20081;-41
2022/12/17 14:49:04;;;;;;;49.47;29.52;;;;;;;2.37;100.00;97195.28;4959810;28;20480;-43
2022/12/17 14:51:36;;;;;;;53.22;28.27;;;;;;;2.34;100.00;97198.91;4965339;28;20078;-46
2022/12/17 14:54:06;;;;;;;50.60;29.10;;;;;;;2.28;100.00;97191.41;4960619;28;20089;-42
2022/12/17 14:56:35;;;;;;;49.13;28.45;;;;;;;2.12;100.00;97191.28;4962030;28;20089;-40
2022/12/17 14:59:03;;;;;;;48.88;28.30;;;;;;;2.10;100.00;97189.72;4964397;28;20177;-40
2022/12/17 15:01:31;;;;;;;49.80;27.92;;;;;;;1.98;100.00;97187.69;4965675;28;20074;-44
2022/12/17 15:04:00;;;;;;;53.53;28.67;;;;;;;1.94;100.00;97201.75;4963511;28;20074;-41
2022/12/17 15:06:28;;;;;;;47.08;27.25;;;;;;;1.87;100.00;97202.03;4965004;28;20569;-42
2022/12/17 15:08:58;;;;;;;46.45;26.88;;;;;;;1.79;100.00;97206.78;4965811;28;20098;-44
2022/12/17 15:11:27;;;;;;;47.20;27.17;;;;;;;1.69;100.00;97217.66;4960323;28;20085;-44
2022/12/17 15:13:55;;;;;;;45.38;27.27;;;;;;;1.27;100.00;97213.50;4959183;28;20102;-43
2022/12/17 15:16:24;;;;;;;47.00;28.25;;;;;;;0.72;100.00;97229.75;4963510;28;20090;-39
2022/12/17 15:18:52;;;;;;;51.75;27.50;;;;;;;0.21;100.00;97234.47;4963003;28;20083;-41
2022/12/17 15:21:21;;;;;;;54.30;28.80;;;;;;;0.50;100.00;97229.81;4961242;28;20523;-41
2022/12/17 15:23:49;;;;;;;56.15;29.98;;;;;;;0.52;100.00;97240.13;4963683;28;20077;-42
2022/12/17 15:26:20;;;;;;;56.03;31.13;;;;;;;0.65;100.00;97236.13;4962355;28;20090;-39
2022/12/17 15:28:48;;;;;;;55.08;30.83;;;;;;;0.65;100.00;97243.91;4961612;28;20734;-41
2022/12/17 15:31:16;;;;;;;62.17;34.08;;;;;;;0.65;100.00;97242.19;4959556;28;20079;-41
2022/12/17 15:33:51;;;;;;;59.40;33.90;;;;;;;0.63;100.00;97246.56;4956809;28;20493;-40
2022/12/17 15:36:20;;;;;;;62.63;33.92;;;;;;;0.58;100.00;97243.31;4961954;28;20082;-44
2022/12/17 15:38:48;;;;;;;58.65;33.17;;;;;;;0.50;100.00;97234.16;4960377;28;20074;-43
2022/12/17 15:44:04;;;;;;;47.55;26.65;;;;;;;0.21;100.00;97246.59;4957800;28;20523;-43
2022/12/17 15:46:33;;;;;;;38.22;22.85;;;;;;;-0.38;100.00;97245.44;4957613;28;20066;-41
2022/12/17 15:49:02;;;;;;;46.55;25.45;;;;;;;-0.63;100.00;97244.66;4956382;28;20464;-40
2022/12/17 15:51:31;;;;;;;45.22;26.23;;;;;;;-0.60;100.00;97247.97;4960325;28;20079;-40
2022/12/17 15:53:59;;;;;;;45.42;24.40;;;;;;;-0.60;100.00;97255.75;4956520;28;20074;-42
2022/12/17 15:56:28;;;;;;;44.38;23.02;;;;;;;-0.78;100.00;97254.69;4964306;28;20077;-46
2022/12/17 15:58:57;;;;;;;44.15;25.45;;;;;;;-1.31;100.00;97256.56;4954513;28;20078;-42
2022/12/17 16:01:27;;;;;;;65.88;33.45;;;;;;;-1.37;100.00;97257.63;4964374;28;20074;-42
2022/12/17 16:03:55;;;;;;;44.92;25.67;;;;;;;-1.37;100.00;97261.97;4955553;28;20093;-40
2022/12/17 16:06:24;;;;;;;59.15;26.95;;;;;;;-1.65;100.00;97270.63;4966458;28;20074;-41
2022/12/17 16:08:52;;;;;;;50.80;27.42;;;;;;;-1.70;100.00;97263.00;4963522;28;20082;-46
2022/12/17 16:11:20;;;;;;;60.70;29.88;;;;;;;-2.01;100.00;97264.88;4965042;28;20561;-44
2022/12/17 16:13:53;;;;;;;56.80;30.27;;;;;;;-2.16;100.00;97267.06;4957094;28;20141;-42
2022/12/17 16:16:22;;;;;;;54.08;28.60;;;;;;;-1.80;100.00;97274.53;4963924;28;20573;-41
2022/12/17 16:18:52;;;;;;;55.05;28.75;;;;;;;-1.54;100.00;97268.53;4959790;28;20696;-43
2022/12/17 16:21:20;;;;;;;51.20;27.02;;;;;;;-1.42;100.00;97267.25;4962014;28;20651;-40
2022/12/17 16:23:49;;;;;;;54.80;28.27;;;;;;;-1.37;100.00;97270.56;4963699;28;20085;-40
2022/12/17 16:26:17;;;;;;;48.40;25.60;;;;;;;-1.38;100.00;97265.41;4958419;28;20083;-43
2022/12/17 16:28:45;;;;;;;41.60;23.02;;;;;;;-1.73;100.00;97270.84;4957899;28;20089;-40
2022/12/17 16:31:15;;;;;;;35.55;21.83;;;;;;;-1.73;100.00;97278.63;4957073;28;20407;-44
2022/12/17 16:33:46;;;;;;;39.67;22.20;;;;;;;-2.10;100.00;97275.50;4958605;28;20129;-41
2022/12/17 16:36:17;;;;;;;41.80;22.38;;;;;;;-2.76;100.00;97277.44;4960234;28;20535;-44
2022/12/17 16:38:47;;;;;;;38.08;21.67;;;;;;;-3.01;100.00;97285.88;4959342;28;20070;-40
2022/12/17 16:41:16;;;;;;;30.10;18.30;;;;;;;-2.80;100.00;97283.59;4960611;28;20078;-42
2022/12/17 16:43:45;;;;;;;33.83;19.48;;;;;;;-2.82;100.00;97286.22;4957669;28;20572;-46
2022/12/17 16:46:27;;;;;;;37.40;21.10;;;;;;;-2.80;100.00;97283.59;4966600;28;20082;-40
2022/12/17 16:48:57;;;;;;;35.28;20.15;;;;;;;-2.82;100.00;97290.50;4959840;28;20085;-41
2022/12/17 16:51:28;;;;;;;37.58;21.08;;;;;;;-3.36;100.00;97291.97;4960733;28;20079;-41
2022/12/17 16:53:57;;;;;;;82.60;32.65;;;;;;;-3.64;100.00;97292.66;4959245;28;20083;-40
2022/12/17 16:56:27;;;;;;;108.22;41.13;;;;;;;-3.22;100.00;97289.03;4959742;28;20129;-40
2022/12/17 16:58:56;;;;;;;70.47;33.38;;;;;;;-2.94;100.00;97297.72;4955705;28;20549;-41
2022/12/17 17:01:26;;;;;;;46.75;23.77;;;;;;;-2.95;100.00;97296.03;4958183;28;20074;-43
2022/12/17 17:03:56;;;;;;;49.45;24.75;;;;;;;-3.07;100.00;97300.66;4962773;28;20067;-41
2022/12/17 17:06:24;;;;;;;41.00;23.25;;;;;;;-2.97;100.00;97299.53;4956394;28;20089;-41
2022/12/17 17:09:03;;;;;;;46.17;23.45;;;;;;;-2.91;100.00;97302.78;4957143;28;20070;-44
2022/12/17 17:11:31;;;;;;;44.75;24.17;;;;;;;-2.94;100.00;97292.53;4958864;28;20082;-46
2022/12/17 17:14:00;;;;;;;44.10;23.42;;;;;;;-3.11;100.00;97305.06;4962231;28;20093;-44
2022/12/17 17:16:29;;;;;;;50.97;23.02;;;;;;;-3.18;100.00;97301.78;4960751;28;20073;-47
2022/12/17 17:18:57;;;;;;;44.53;23.33;;;;;;;-2.98;100.00;97305.59;4955555;28;20098;-41
2022/12/17 17:21:28;;;;;;;43.92;24.60;;;;;;;-2.94;100.00;97304.59;4961231;28;20070;-41
2022/12/17 17:23:58;;;;;;;43.22;22.90;;;;;;;-2.96;100.00;97303.78;4961449;28;20097;-46
2022/12/17 17:26:28;;;;;;;;;;;;;;;-3.16;99.30;97306.94;4959478;28;20089;-44
2022/12/17 17:28:56;;;;;;;48.33;26.33;;;;;;;-3.59;100.00;97318.31;4958281;28;20027;-46
2022/12/17 17:31:26;;;;;;;43.58;22.80;;;;;;;-3.78;100.00;97317.06;4964477;28;20086;-45
2022/12/17 17:34:14;;;;;;;39.95;22.30;;;;;;;-3.71;96.13;97321.19;4959872;28;20086;-44
2022/12/17 17:36:43;;;;;;;38.88;20.50;;;;;;;-3.68;96.32;97329.69;4958740;28;20086;-41
2022/12/17 17:39:11;;;;;;;35.95;19.98;;;;;;;-3.90;95.42;97337.06;4958614;28;20106;-41
2022/12/17 17:41:41;;;;;;;36.63;20.08;;;;;;;-4.07;100.00;97342.59;4959931;28;20078;-41
2022/12/17 17:44:12;;;;;;;33.80;19.33;;;;;;;-4.60;100.00;97338.59;4956798;28;20505;-43
2022/12/17 17:46:40;;;;;;;60.45;30.27;;;;;;;-4.21;100.00;97338.63;4957434;28;20090;-42
2022/12/17 17:49:10;;;;;;;41.70;22.85;;;;;;;-3.98;100.00;97340.72;4962261;28;20071;-43
2022/12/17 17:51:40;;;;;;;51.42;25.70;;;;;;;-3.91;100.00;97352.56;4964742;28;20070;-41
2022/12/17 17:54:29;;;;;;;46.15;26.52;;;;;;;-4.18;100.00;97348.88;4964362;28;20081;-45
2022/12/17 17:56:59;;;;;;;55.10;27.88;;;;;;;-4.14;100.00;97347.91;4955121;28;20332;-46
2022/12/17 17:59:27;;;;;;;51.88;26.02;;;;;;;-4.06;100.00;97346.00;4957537;28;20074;-43
2022/12/17 18:02:01;;;;;;;50.15;25.17;;;;;;;-3.99;100.00;97350.16;4959859;28;20086;-44
2022/12/17 18:04:30;;;;;;;52.45;25.83;;;;;;;-3.97;100.00;97347.53;4959494;28;20091;-42
2022/12/17 18:06:58;;;;;;;71.75;31.00;;;;;;;-4.17;100.00;97350.56;4964190;28;20806;-47
2022/12/17 18:09:47;;;;;;;60.42;29.27;;;;;;;-4.22;100.00;97354.97;4964298;28;20079;-44
2022/12/17 18:15:02;;;;;;;167.77;30.88;;;;;;;-5.33;100.00;97371.66;4957219;28;20070;-44
2022/12/17 18:17:49;;;;;;;140.80;30.25;;;;;;;-4.98;100.00;97375.34;4958604;28;20090;-46
2022/12/17 18:20:19;;;;;;;150.73;32.45;;;;;;;-5.05;100.00;97384.88;4957693;28;20089;-46
2022/12/17 18:22:49;;;;;;;143.57;34.28;;;;;;;-4.66;100.00;97385.00;4967221;28;20090;-41
2022/12/17 18:25:17;;;;;;;68.55;34.00;;;;;;;-4.51;100.00;97382.13;4957319;28;20078;-44
2022/12/17 18:27:47;;;;;;;109.40;35.80;;;;;;;-4.54;100.00;97382.22;4960140;28;20042;-43
2022/12/17 18:30:16;;;;;;;121.70;43.47;;;;;;;-4.65;100.00;97387.53;4961028;28;20074;-46
2022/12/17 18:32:45;;;;;;;113.25;36.15;;;;;;;-4.69;100.00;97382.50;4960942;28;20090;-45
2022/12/17 18:35:13;;;;;;;96.45;30.20;;;;;;;-4.04;100.00;97389.78;4959603;28;20094;-43
2022/12/17 18:37:41;;;;;;;121.28;40.53;;;;;;;-3.88;100.00;97383.41;4961156;28;20635;-43
2022/12/17 18:40:10;;;;;;;113.57;39.53;;;;;;;-3.66;100.00;97382.03;4963167;28;20098;-48
2022/12/17 18:45:26;;;;;;;145.05;43.00;;;;;;;-3.29;100.00;97388.06;4964745;28;20093;-43
2022/12/17 18:47:54;;;;;;;117.63;42.05;;;;;;;-3.48;100.00;97387.66;4945412;28;20070;-47
2022/12/17 18:50:22;;;;;;;120.20;38.03;;;;;;;-3.38;100.00;97383.97;4962261;28;20553;-48
2022/12/17 18:52:50;;;;;;;126.93;41.40;;;;;;;-3.08;100.00;97389.28;4962171;28;20082;-42
2022/12/17 18:55:19;;;;;;;135.90;41.97;;;;;;;-2.75;100.00;97390.13;4955988;28;20173;-43
2022/12/17 18:57:47;;;;;;;118.38;42.38;;;;;;;-2.44;100.00;97382.41;4958266;28;20094;-42
2022/12/17 19:00:16;;;;;;;127.50;43.08;;;;;;;-2.19;100.00;97391.16;4959164;28;20070;-43
2022/12/17 19:02:45;;;;;;;157.57;46.53;;;;;;;-2.20;100.00;97386.88;4959804;28;20117;-47
2022/12/17 19:05:14;;;;;;;148.82;45.92;;;;;;;-2.01;100.00;97386.34;4957383;28;20097;-42
2022/12/17 19:07:42;;;;;;;140.15;40.42;;;;;;;-1.90;100.00;97381.69;4957867;28;20089;-44
2022/12/17 19:10:10;;;;;;;118.78;37.08;;;;;;;-1.98;100.00;97394.00;4960036;28;21359;-42
2022/12/17 19:12:39;;;;;;;97.55;30.60;;;;;;;-2.18;100.00;97400.59;4966338;28;20132;-49
2022/12/17 19:15:08;;;;;;;110.30;30.45;;;;;;;-2.06;100.00;97393.41;4956515;28;20071;-46
2022/12/17 19:17:37;;;;;;;151.10;31.07;;;;;;;-2.06;100.00;97396.00;4959842;28;20094;-43
2022/12/17 19:20:08;;;;;;;99.93;27.73;;;;;;;-2.07;100.00;97402.88;4963376;28;20498;-41
2022/12/17 19:22:36;;;;;;;81.13;27.35;;;;;;;-1.66;100.00;97393.03;4965218;28;20078;-46
2022/12/17 19:25:05;;;;;;;143.48;32.28;;;;;;;-2.01;100.00;97413.03;4961834;28;20090;-48
2022/12/17 19:27:33;;;;;;;124.45;31.73;;;;;;;-1.67;100.00;97406.88;4963227;28;20090;-42
2022/12/17 19:30:01;;;;;;;99.13;32.40;;;;;;;-1.29;100.00;97400.50;4963796;28;20105;-41
2022/12/17 19:32:30;;;;;;;122.38;30.05;;;;;;;-1.51;100.00;97396.91;4960229;28;20074;-44
2022/12/17 19:34:58;;;;;;;64.05;22.83;;;;;;;-1.92;100.00;97401.59;4959402;28;20097;-47
2022/12/17 19:37:28;;;;;;;179.35;49.17;;;;;;;-1.55;100.00;97397.88;4963708;28;20088;-44
2022/12/17 19:39:56;;;;;;;140.50;41.08;;;;;;;-1.63;100.00;97399.88;4959680;28;20075;-45
2022/12/17 19:42:24;;;;;;;119.38;34.25;;;;;;;-1.48;100.00;97407.13;4971135;28;20086;-47
2022/12/17 19:44:55;;;;;;;164.65;38.63;;;;;;;-1.58;100.00;97405.72;4965681;28;20481;-42
2022/12/17 19:47:24;;;;;;;94.30;30.70;;;;;;;-1.71;100.00;97408.72;4966097;28;20550;-43
2022/12/17 19:49:52;;;;;;;154.73;36.40;;;;;;;-1.46;100.00;97416.56;4963245;28;20082;-44
2022/12/17 19:52:20;;;;;;;112.80;31.92;;;;;;;-1.47;100.00;97414.88;4960719;28;20070;-42
2022/12/17 19:54:50;;;;;;;140.70;36.05;;;;;;;-1.02;100.00;97416.88;4962467;28;20087;-42
2022/12/17 19:57:18;;;;;;;129.77;36.00;;;;;;;-0.97;100.00;97406.38;4959610;28;20086;-41
2022/12/17 19:59:46;;;;;;;135.05;32.53;;;;;;;-1.27;100.00;97413.41;4964753;28;20093;-41
2022/12/17 20:02:16;;;;;;;94.22;29.42;;;;;;;-1.19;100.00;97414.00;4973876;28;20109;-45
2022/12/17 20:04:44;;;;;;;89.80;31.20;;;;;;;-0.99;100.00;97416.78;4967609;28;20086;-46
2022/12/17 20:07:12;;;;;;;132.85;36.70;;;;;;;-0.64;100.00;97413.91;4963611;28;20086;-42
2022/12/17 20:09:43;;;;;;;98.80;33.83;;;;;;;-0.51;100.00;97405.66;4965267;28;20074;-41
2022/12/17 20:12:13;;;;;;;92.00;35.63;;;;;;;-0.35;100.00;97405.97;4965137;28;20082;-43
2022/12/17 20:14:41;;;;;;;103.32;38.17;;;;;;;-0.14;100.00;97400.91;4967306;28;20488;-46
2022/12/17 20:17:09;;;;;;;88.70;32.67;;;;;;;-0.65;100.00;97407.91;4966027;28;20547;-45
2022/12/17 20:19:38;;;;;;;94.90;36.40;;;;;;;-0.54;100.00;97410.97;4966872;28;20078;-43
2022/12/17 20:22:06;;;;;;;113.18;39.85;;;;;;;-0.19;100.00;97408.84;4965540;28;20079;-46
2022/12/17 20:24:36;;;;;;;100.97;39.55;;;;;;;-0.09;100.00;97412.81;4969822;28;20460;-46
2022/12/17 20:27:04;;;;;;;120.03;42.92;;;;;;;-0.55;100.00;97409.28;4969355;28;20206;-45
2022/12/17 20:29:34;;;;;;;106.47;41.15;;;;;;;-0.34;100.00;97417.19;4963306;28;20466;-45
2022/12/17 20:32:03;;;;;;;108.30;37.45;;;;;;;-0.65;100.00;97410.50;4964535;28;20088;-49
2022/12/17 20:34:31;;;;;;;109.50;42.53;;;;;;;-0.29;100.00;97408.34;4963372;28;20101;-47
2022/12/17 20:36:59;;;;;;;87.60;35.25;;;;;;;-0.47;100.00;97415.94;4968309;28;20085;-44
2022/12/17 20:39:28;;;;;;;93.32;38.47;;;;;;;-0.40;100.00;97417.41;4970016;28;20089;-44
2022/12/17 20:41:57;;;;;;;86.82;36.15;;;;;;;-0.29;100.00;97418.72;4968590;28;20104;-43
2022/12/17 20:44:25;;;;;;;83.55;33.92;;;;;;;-0.11;100.00;97416.34;4968263;28;20086;-47
2022/12/17 20:46:55;;;;;;;84.90;33.38;;;;;;;-0.20;100.00;97427.06;4964398;28;20082;-47
2022/12/17 20:49:23;;;;;;;86.45;34.30;;;;;;;-0.23;100.00;97425.44;4962640;28;20098;-43
2022/12/17 20:51:51;;;;;;;90.90;35.10;;;;;;;-0.40;100.00;97420.84;4965783;28;20079;-44
2022/12/17 20:54:20;;;;;;;87.80;38.80;;;;;;;-0.65;100.00;97430.38;4966197;28;20488;-49
2022/12/17 20:56:49;;;;;;;80.20;33.70;;;;;;;-0.66;100.00;97431.25;4962074;28;20110;-44
2022/12/17 20:59:18;;;;;;;85.32;35.78;;;;;;;-0.53;100.00;97433.38;4961638;28;22223;-42
2022/12/17 21:01:47;;;;;;;94.75;38.20;;;;;;;-0.52;100.00;97429.91;4964381;28;20093;-43
2022/12/17 21:04:24;;;;;;;94.75;37.15;;;;;;;-0.82;100.00;97431.78;4963342;28;20483;-44
2022/12/17 21:06:52;;;;;;;95.80;36.42;;;;;;;-0.65;100.00;97428.63;4970720;28;20097;-44
2022/12/17 21:09:21;;;;;;;94.80;38.20;;;;;;;-0.66;100.00;97423.47;4966334;28;20087;-44
2022/12/17 21:11:50;;;;;;;97.13;37.63;;;;;;;-0.65;100.00;97428.63;4968945;28;20101;-47
2022/12/17 21:14:19;;;;;;;87.55;35.08;;;;;;;-0.70;100.00;97430.50;4963778;28;20083;-47
2022/12/17 21:16:47;;;;;;;112.22;40.45;;;;;;;-0.78;100.00;97435.09;4967242;28;20090;-42
2022/12/17 21:19:17;;;;;;;95.80;37.70;;;;;;;-0.99;100.00;97427.16;4962961;28;20078;-45
2022/12/17 21:21:47;;;;;;;86.38;34.85;;;;;;;-0.96;100.00;97431.38;4967537;28;20066;-43
2022/12/17 21:24:15;;;;;;;73.40;32.08;;;;;;;-0.89;100.00;97427.69;4971813;28;20074;-41
2022/12/17 21:26:46;;;;;;;71.80;32.40;;;;;;;-1.09;100.00;97428.34;4959949;28;20094;-49
2022/12/17 21:29:15;;;;;;;72.32;29.83;;;;;;;-1.08;100.00;97442.97;4970801;28;20090;-46
2022/12/17 21:31:45;;;;;;;84.32;34.40;;;;;;;-0.94;100.00;97437.34;4965449;28;20534;-46
2022/12/17 21:34:16;;;;;;;68.55;30.85;;;;;;;-0.93;100.00;97440.78;4964563;28;20089;-46
2022/12/17 21:36:47;;;;;;;69.57;31.02;;;;;;;-1.21;100.00;97434.72;4963371;28;20498;-43
2022/12/17 21:39:16;;;;;;;87.93;35.60;;;;;;;-1.18;100.00;97441.56;4966805;28;20108;-41
2022/12/17 21:43:00;;;;;;;93.17;37.13;;;;;;;-1.21;100.00;97446.84;4963871;28;20091;-41
2022/12/17 21:44:35;;;;;;;109.25;36.47;;;;;;;-1.44;100.00;97440.66;4964558;28;20495;-46
2022/12/17 21:47:04;;;;;;;80.45;31.05;;;;;;;-1.16;100.00;97444.13;4963097;28;20098;-42
2022/12/17 21:49:33;;;;;;;67.65;28.45;;;;;;;-1.26;100.00;97448.72;4969685;28;20082;-47
2022/12/17 21:52:04;;;;;;;87.45;32.70;;;;;;;-1.10;100.00;97449.94;4963962;28;20087;-47
2022/12/17 21:54:38;;;;;;;89.90;34.33;;;;;;;-0.97;100.00;97450.38;4959767;28;20074;-42
2022/12/17 21:57:08;;;;;;;90.20;34.15;;;;;;;-1.00;100.00;97458.25;4963113;28;20723;-41
2022/12/17 21:59:37;;;;;;;74.35;31.15;;;;;;;-1.19;100.00;97458.00;4961902;28;20082;-44
2022/12/17 22:02:05;;;;;;;81.07;33.50;;;;;;;-0.78;100.00;97454.06;4967759;28;20086;-42
2022/12/17 22:04:35;;;;;;;73.25;29.25;;;;;;;-1.29;100.00;97465.19;4956610;28;20083;-45
2022/12/17 22:07:05;;;;;;;76.22;30.45;;;;;;;-0.99;100.00;97457.38;4964854;28;20078;-46
2022/12/17 22:09:53;;;;;;;78.50;29.30;;;;;;;-1.67;100.00;97477.53;4966100;28;20085;-44
2022/12/17 22:15:27;;;;;;;81.25;30.48;;;;;;;-1.14;100.00;97463.84;4961251;28;20087;-48
2022/12/17 22:18:04;;;;;;;65.00;25.60;;;;;;;-1.45;100.00;97461.38;4967070;28;20082;-45
2022/12/17 22:20:32;;;;;;;83.85;31.58;;;;;;;-1.43;100.00;97459.59;4968113;28;20447;-46
2022/12/17 22:23:03;;;;;;;61.13;25.15;;;;;;;-1.71;100.00;97469.91;4967704;28;20094;-44
2022/12/17 22:25:32;;;;;;;69.95;26.65;;;;;;;-1.93;100.00;97465.38;4956553;28;20082;-43
2022/12/17 22:28:00;;;;;;;87.43;33.28;;;;;;;-2.17;100.00;97466.03;4961366;28;20085;-45
2022/12/17 22:33:15;;;;;;;51.95;21.20;;;;;;;-1.75;100.00;97473.50;4966515;28;20086;-43
2022/12/17 22:36:03;;;;;;;72.95;29.90;;;;;;;-1.37;100.00;97468.94;4959507;28;20153;-41
2022/12/17 22:38:52;;;;;;;84.72;30.95;;;;;;;-1.28;100.00;97471.22;4962559;28;20082;-41
2022/12/17 22:44:47;;;;;;;96.30;37.13;;;;;;;-0.91;100.00;97475.25;4961627;28;20089;-43
2022/12/17 22:47:21;;;;;;;92.13;35.92;;;;;;;-0.59;100.00;97481.94;4958165;28;20090;-44
2022/12/17 22:49:49;;;;;;;95.60;35.58;;;;;;;-1.02;100.00;97480.75;4970013;28;20090;-44
2022/12/17 22:52:18;;;;;;;70.32;29.35;;;;;;;-0.90;100.00;97482.94;4964440;28;20078;-45
2022/12/17 22:54:49;;;;;;;80.88;30.40;;;;;;;-1.24;100.00;97472.81;4965437;28;20082;-40
2022/12/17 22:57:17;;;;;;;79.65;28.85;;;;;;;-1.32;100.00;97479.97;4954195;28;20483;-43
2022/12/17 23:00:11;;;;;;;83.28;33.13;;;;;;;-0.88;100.00;97473.41;4957478;28;20105;-43
2022/12/17 23:02:40;;;;;;;93.47;37.70;;;;;;;-0.70;100.00;97484.06;4958487;28;20090;-42
2022/12/17 23:05:09;;;;;;;66.90;25.98;;;;;;;-0.69;100.00;97484.00;4955194;28;20083;-43
2022/12/17 23:07:37;;;;;;;75.63;29.55;;;;;;;-1.10;100.00;97486.19;4961251;28;20089;-43
2022/12/17 23:10:07;;;;;;;85.50;33.75;;;;;;;-0.62;100.00;97484.63;4960043;28;20091;-44
2022/12/17 23:12:51;;;;;;;83.13;32.92;;;;;;;-1.32;100.00;97488.56;4959652;28;20573;-42
2022/12/17 23:15:23;;;;;;;82.28;32.45;;;;;;;-1.31;100.00;97484.25;4961394;28;20074;-45
2022/12/17 23:17:53;;;;;;;89.63;33.40;;;;;;;-1.33;100.00;97479.13;4958657;28;20090;-45
2022/12/17 23:20:22;;;;;;;92.90;32.53;;;;;;;-1.03;100.00;97481.66;4959876;28;20546;-46
2022/12/17 23:22:50;;;;;;;81.40;33.33;;;;;;;-0.84;100.00;97479.31;4963284;28;20089;-48
2022/12/17 23:25:21;;;;;;;75.13;29.85;;;;;;;-1.09;100.00;97477.53;4962113;28;20085;-41
2022/12/17 23:27:49;;;;;;;82.57;32.88;;;;;;;-0.68;100.00;97480.53;4959959;28;20098;-43
2022/12/17 23:30:19;;;;;;;71.28;27.58;;;;;;;-1.11;100.00;97491.41;4958930;28;20081;-44
2022/12/17 23:32:47;;;;;;;77.70;33.05;;;;;;;-0.92;100.00;97481.31;4963289;28;20097;-42
2022/12/17 23:35:16;;;;;;;64.32;28.55;;;;;;;-1.36;100.00;97480.97;4962674;28;20082;-48
2022/12/17 23:37:44;;;;;;;87.70;34.95;;;;;;;-1.70;100.00;97482.78;4959478;28;20491;-44
2022/12/17 23:40:13;;;;;;;72.72;30.08;;;;;;;-1.17;100.00;97473.47;4958862;28;20081;-44
2022/12/17 23:42:43;;;;;;;79.63;32.97;;;;;;;-1.08;100.00;97474.03;4959247;28;20082;-44
2022/12/17 23:45:12;;;;;;;84.17;32.67;;;;;;;-0.93;100.00;97469.25;4959758;28;20074;-42
2022/12/17 23:47:40;;;;;;;76.07;28.85;;;;;;;-0.88;100.00;97457.88;4956901;28;20517;-49
2022/12/17 23:50:10;;;;;;;66.38;25.70;;;;;;;-0.99;100.00;97467.72;4965266;28;20097;-44
2022/12/17 23:52:38;;;;;;;79.90;32.08;;;;;;;-1.03;100.00;97455.78;4957881;28;20589;-45
2022/12/17 23:55:07;;;;;;;72.95;28.58;;;;;;;-1.01;100.00;97454.81;4963717;28;20788;-42
2022/12/17 23:57:35;;;;;;;73.32;27.42;;;;;;;-1.00;100.00;97453.06;4960980;28;20107;-43
